sensor_id;sensor_type;location;lat;lon;timestamp;pressure;altitude;pressure_sealevel;temperature;humidity
69411;BME280;56604;48.652;9.194;2023-04-06T00:00:50;96445.69;;;2.03;56.73
69411;BME280;56604;48.652;9.194;2023-04-06T00:03:16;96442.72;;;2.06;56.30
69411;BME280;56604;48.652;9.194;2023-04-06T00:05:41;96443.91;;;2.10;55.76
69411;BME280;56604;48.652;9.194;2023-04-06T00:08:07;96438.94;;;2.09;56.42
69411;BME280;56604;48.652;9.194;2023-04-06T00:10:33;96442.31;;;2.09;56.17
69411;BME280;56604;48.652;9.194;2023-04-06T00:12:59;96431.56;;;2.12;56.21
69411;BME280;56604;48.652;9.194;2023-04-06T00:15:25;96425.97;;;2.09;55.96
69411;BME280;56604;48.652;9.194;2023-04-06T00:17:50;96429.59;;;2.14;56.06
69411;BME280;56604;48.652;9.194;2023-04-06T00:20:17;96427.25;;;2.19;54.89
69411;BME280;56604;48.652;9.194;2023-04-06T00:22:43;96431.59;;;2.19;55.54
69411;BME280;56604;48.652;9.194;2023-04-06T00:25:08;96426.00;;;2.15;55.70
69411;BME280;56604;48.652;9.194;2023-04-06T00:27:35;96426.41;;;2.19;55.64
69411;BME280;56604;48.652;9.194;2023-04-06T00:30:01;96424.41;;;2.14;55.97
69411;BME280;56604;48.652;9.194;2023-04-06T00:32:26;96412.41;;;2.13;55.98
69411;BME280;56604;48.652;9.194;2023-04-06T00:34:52;96411.81;;;2.11;56.14
69411;BME280;56604;48.652;9.194;2023-04-06T00:37:18;96415.22;;;2.12;56.29
69411;BME280;56604;48.652;9.194;2023-04-06T00:39:44;96414.81;;;2.08;56.57
69411;BME280;56604;48.652;9.194;2023-04-06T00:42:13;96413.19;;;2.07;56.66
69411;BME280;56604;48.652;9.194;2023-04-06T00:44:40;96412.53;;;1.98;56.61
69411;BME280;56604;48.652;9.194;2023-04-06T00:47:06;96406.19;;;2.01;56.98
69411;BME280;56604;48.652;9.194;2023-04-06T00:49:32;96414.34;;;1.98;56.85
69411;BME280;56604;48.652;9.194;2023-04-06T00:51:58;96409.38;;;2.03;56.79
69411;BME280;56604;48.652;9.194;2023-04-06T00:54:23;96406.00;;;2.02;56.52
69411;BME280;56604;48.652;9.194;2023-04-06T00:56:49;96406.78;;;2.03;56.53
69411;BME280;56604;48.652;9.194;2023-04-06T00:59:14;96400.38;;;1.99;56.27
69411;BME280;56604;48.652;9.194;2023-04-06T01:01:40;96402.94;;;1.92;56.58
69411;BME280;56604;48.652;9.194;2023-04-06T01:04:06;96404.34;;;1.95;56.98
69411;BME280;56604;48.652;9.194;2023-04-06T01:06:31;96405.13;;;1.89;56.57
69411;BME280;56604;48.652;9.194;2023-04-06T01:08:56;96406.25;;;1.79;57.76
69411;BME280;56604;48.652;9.194;2023-04-06T01:11:22;96403.03;;;1.77;57.33
69411;BME280;56604;48.652;9.194;2023-04-06T01:13:47;96401.81;;;1.73;57.19
69411;BME280;56604;48.652;9.194;2023-04-06T01:16:13;96399.00;;;1.68;57.82
69411;BME280;56604;48.652;9.194;2023-04-06T01:18:38;96401.97;;;1.65;57.73
69411;BME280;56604;48.652;9.194;2023-04-06T01:21:04;96401.34;;;1.63;57.81
69411;BME280;56604;48.652;9.194;2023-04-06T01:23:29;96397.75;;;1.64;58.26
69411;BME280;56604;48.652;9.194;2023-04-06T01:25:55;96399.72;;;1.62;58.95
69411;BME280;56604;48.652;9.194;2023-04-06T01:28:20;96394.56;;;1.62;58.62
69411;BME280;56604;48.652;9.194;2023-04-06T01:30:46;96393.72;;;1.55;58.24
69411;BME280;56604;48.652;9.194;2023-04-06T01:33:11;96390.88;;;1.50;58.69
69411;BME280;56604;48.652;9.194;2023-04-06T01:35:37;96386.06;;;1.47;58.64
69411;BME280;56604;48.652;9.194;2023-04-06T01:38:02;96388.19;;;1.37;58.87
69411;BME280;56604;48.652;9.194;2023-04-06T01:40:27;96386.34;;;1.30;59.26
69411;BME280;56604;48.652;9.194;2023-04-06T01:42:53;96392.28;;;1.24;59.30
69411;BME280;56604;48.652;9.194;2023-04-06T01:45:18;96392.66;;;1.21;59.85
69411;BME280;56604;48.652;9.194;2023-04-06T01:47:43;96396.66;;;1.24;59.44
69411;BME280;56604;48.652;9.194;2023-04-06T01:50:09;96391.06;;;1.20;59.63
69411;BME280;56604;48.652;9.194;2023-04-06T01:52:34;96389.81;;;1.16;59.79
69411;BME280;56604;48.652;9.194;2023-04-06T01:54:59;96383.59;;;1.10;60.17
69411;BME280;56604;48.652;9.194;2023-04-06T01:57:25;96383.34;;;1.05;60.35
69411;BME280;56604;48.652;9.194;2023-04-06T01:59:51;96379.94;;;1.05;60.52
69411;BME280;56604;48.652;9.194;2023-04-06T02:02:16;96385.38;;;1.10;60.30
69411;BME280;56604;48.652;9.194;2023-04-06T02:04:42;96384.16;;;1.06;60.91
69411;BME280;56604;48.652;9.194;2023-04-06T02:07:07;96382.91;;;1.02;61.07
69411;BME280;56604;48.652;9.194;2023-04-06T02:09:32;96382.47;;;0.98;61.18
69411;BME280;56604;48.652;9.194;2023-04-06T02:11:58;96373.28;;;0.96;61.27
69411;BME280;56604;48.652;9.194;2023-04-06T02:14:26;96380.00;;;0.90;61.25
69411;BME280;56604;48.652;9.194;2023-04-06T02:16:51;96376.50;;;0.98;60.94
69411;BME280;56604;48.652;9.194;2023-04-06T02:19:17;96377.69;;;0.95;61.09
69411;BME280;56604;48.652;9.194;2023-04-06T02:21:42;96372.56;;;1.02;61.06
69411;BME280;56604;48.652;9.194;2023-04-06T02:24:07;96370.59;;;1.04;60.55
69411;BME280;56604;48.652;9.194;2023-04-06T02:26:33;96375.34;;;1.00;61.07
69411;BME280;56604;48.652;9.194;2023-04-06T02:28:58;96372.56;;;1.02;60.94
69411;BME280;56604;48.652;9.194;2023-04-06T02:31:24;96377.72;;;1.02;61.16
69411;BME280;56604;48.652;9.194;2023-04-06T02:33:49;96375.72;;;0.97;61.04
69411;BME280;56604;48.652;9.194;2023-04-06T02:36:14;96371.75;;;1.01;61.07
69411;BME280;56604;48.652;9.194;2023-04-06T02:38:40;96363.56;;;0.98;61.19
69411;BME280;56604;48.652;9.194;2023-04-06T02:41:05;96372.13;;;0.98;61.33
69411;BME280;56604;48.652;9.194;2023-04-06T02:43:31;96366.53;;;0.95;61.46
69411;BME280;56604;48.652;9.194;2023-04-06T02:45:56;96366.78;;;1.00;61.69
69411;BME280;56604;48.652;9.194;2023-04-06T02:48:21;96373.28;;;0.96;61.56
69411;BME280;56604;48.652;9.194;2023-04-06T02:50:47;96366.94;;;0.98;60.99
69411;BME280;56604;48.652;9.194;2023-04-06T02:53:12;96368.75;;;0.98;60.89
69411;BME280;56604;48.652;9.194;2023-04-06T02:55:37;96363.56;;;0.98;61.43
69411;BME280;56604;48.652;9.194;2023-04-06T02:58:03;96360.59;;;1.01;61.11
69411;BME280;56604;48.652;9.194;2023-04-06T03:00:28;96361.34;;;0.95;61.11
69411;BME280;56604;48.652;9.194;2023-04-06T03:02:53;96363.06;;;0.87;61.84
69411;BME280;56604;48.652;9.194;2023-04-06T03:05:19;96367.28;;;0.88;61.58
69411;BME280;56604;48.652;9.194;2023-04-06T03:07:45;96366.44;;;0.88;61.45
69411;BME280;56604;48.652;9.194;2023-04-06T03:10:11;96363.69;;;0.89;61.79
69411;BME280;56604;48.652;9.194;2023-04-06T03:12:36;96362.31;;;0.94;61.68
69411;BME280;56604;48.652;9.194;2023-04-06T03:15:02;96361.72;;;0.92;61.74
69411;BME280;56604;48.652;9.194;2023-04-06T03:17:27;96367.06;;;0.90;62.10
69411;BME280;56604;48.652;9.194;2023-04-06T03:19:52;96365.06;;;0.85;62.42
69411;BME280;56604;48.652;9.194;2023-04-06T03:22:19;96357.09;;;0.87;62.69
69411;BME280;56604;48.652;9.194;2023-04-06T03:24:44;96360.84;;;0.84;62.59
69411;BME280;56604;48.652;9.194;2023-04-06T03:27:10;96360.84;;;0.84;62.29
69411;BME280;56604;48.652;9.194;2023-04-06T03:29:35;96365.66;;;0.87;62.49
69411;BME280;56604;48.652;9.194;2023-04-06T03:32:01;96365.28;;;0.90;62.16
69411;BME280;56604;48.652;9.194;2023-04-06T03:34:26;96363.81;;;0.81;62.43
69411;BME280;56604;48.652;9.194;2023-04-06T03:36:51;96361.41;;;0.80;62.67
69411;BME280;56604;48.652;9.194;2023-04-06T03:39:17;96365.16;;;0.77;63.34
69411;BME280;56604;48.652;9.194;2023-04-06T03:41:42;96367.13;;;0.75;63.13
69411;BME280;56604;48.652;9.194;2023-04-06T03:44:09;96369.09;;;0.73;63.09
69411;BME280;56604;48.652;9.194;2023-04-06T03:46:34;96372.25;;;0.69;63.22
69411;BME280;56604;48.652;9.194;2023-04-06T03:49:00;96373.84;;;0.70;63.26
69411;BME280;56604;48.652;9.194;2023-04-06T03:51:25;96371.00;;;0.64;63.27
69411;BME280;56604;48.652;9.194;2023-04-06T03:53:51;96374.94;;;0.60;63.29
69411;BME280;56604;48.652;9.194;2023-04-06T03:56:16;96378.88;;;0.56;63.52
69411;BME280;56604;48.652;9.194;2023-04-06T03:58:41;96380.72;;;0.62;63.15
69411;BME280;56604;48.652;9.194;2023-04-06T04:01:09;96384.22;;;0.55;63.36
69411;BME280;56604;48.652;9.194;2023-04-06T04:03:35;96387.34;;;0.50;62.93
69411;BME280;56604;48.652;9.194;2023-04-06T04:06:00;96383.19;;;0.49;63.86
69411;BME280;56604;48.652;9.194;2023-04-06T04:08:25;96381.50;;;0.41;63.76
69411;BME280;56604;48.652;9.194;2023-04-06T04:10:51;96382.84;;;0.37;63.83
69411;BME280;56604;48.652;9.194;2023-04-06T04:13:16;96387.03;;;0.38;64.08
69411;BME280;56604;48.652;9.194;2023-04-06T04:15:42;96393.88;;;0.31;64.75
69411;BME280;56604;48.652;9.194;2023-04-06T04:18:07;96392.56;;;0.35;64.98
69411;BME280;56604;48.652;9.194;2023-04-06T04:20:33;96391.13;;;0.33;64.99
69411;BME280;56604;48.652;9.194;2023-04-06T04:22:59;96394.50;;;0.33;64.92
69411;BME280;56604;48.652;9.194;2023-04-06T04:25:24;96390.97;;;0.34;64.51
69411;BME280;56604;48.652;9.194;2023-04-06T04:27:50;96394.16;;;0.36;64.94
69411;BME280;56604;48.652;9.194;2023-04-06T04:30:16;96389.34;;;0.33;64.90
69411;BME280;56604;48.652;9.194;2023-04-06T04:32:41;96403.63;;;0.29;64.92
69411;BME280;56604;48.652;9.194;2023-04-06T04:35:07;96400.47;;;0.34;65.24
69411;BME280;56604;48.652;9.194;2023-04-06T04:37:32;96400.78;;;0.24;65.52
69411;BME280;56604;48.652;9.194;2023-04-06T04:39:59;96398.81;;;0.26;66.88
69411;BME280;56604;48.652;9.194;2023-04-06T04:42:25;96400.88;;;0.16;66.75
69411;BME280;56604;48.652;9.194;2023-04-06T04:44:50;96403.09;;;0.19;66.47
69411;BME280;56604;48.652;9.194;2023-04-06T04:47:15;96401.84;;;0.15;66.23
69411;BME280;56604;48.652;9.194;2023-04-06T04:49:41;96400.59;;;0.11;65.89
69411;BME280;56604;48.652;9.194;2023-04-06T04:52:06;96409.69;;;0.07;66.49
69411;BME280;56604;48.652;9.194;2023-04-06T04:54:32;96406.56;;;0.11;66.33
69411;BME280;56604;48.652;9.194;2023-04-06T04:56:57;96411.28;;;0.08;66.42
69411;BME280;56604;48.652;9.194;2023-04-06T04:59:22;96412.56;;;0.12;66.69
69411;BME280;56604;48.652;9.194;2023-04-06T05:01:48;96406.47;;;0.19;66.79
69411;BME280;56604;48.652;9.194;2023-04-06T05:04:13;96407.63;;;0.32;66.07
69411;BME280;56604;48.652;9.194;2023-04-06T05:06:38;96402.44;;;0.47;65.56
69411;BME280;56604;48.652;9.194;2023-04-06T05:09:04;96407.22;;;0.64;64.89
69411;BME280;56604;48.652;9.194;2023-04-06T05:11:29;96397.81;;;0.78;63.95
69411;BME280;56604;48.652;9.194;2023-04-06T05:13:55;96396.47;;;1.04;63.72
69411;BME280;56604;48.652;9.194;2023-04-06T05:16:21;96397.16;;;1.34;63.33
69411;BME280;56604;48.652;9.194;2023-04-06T05:18:47;96402.19;;;1.70;61.82
69411;BME280;56604;48.652;9.194;2023-04-06T05:21:13;96398.16;;;1.96;60.74
69411;BME280;56604;48.652;9.194;2023-04-06T05:23:39;96401.81;;;2.43;58.70
69411;BME280;56604;48.652;9.194;2023-04-06T05:26:05;96404.31;;;2.78;57.74
69411;BME280;56604;48.652;9.194;2023-04-06T05:28:31;96406.97;;;3.04;57.03
69411;BME280;56604;48.652;9.194;2023-04-06T05:30:57;96410.00;;;3.41;55.83
69411;BME280;56604;48.652;9.194;2023-04-06T05:33:23;96409.22;;;3.74;54.81
69411;BME280;56604;48.652;9.194;2023-04-06T05:35:48;96413.94;;;4.17;52.50
69411;BME280;56604;48.652;9.194;2023-04-06T05:38:14;96409.88;;;4.41;52.93
69411;BME280;56604;48.652;9.194;2023-04-06T05:40:39;96419.78;;;4.70;51.02
69411;BME280;56604;48.652;9.194;2023-04-06T05:43:06;96410.69;;;4.86;51.06
69411;BME280;56604;48.652;9.194;2023-04-06T05:45:32;96411.38;;;5.38;50.63
69411;BME280;56604;48.652;9.194;2023-04-06T05:47:57;96404.81;;;5.61;48.98
69411;BME280;56604;48.652;9.194;2023-04-06T05:50:22;96409.50;;;6.21;48.91
69411;BME280;56604;48.652;9.194;2023-04-06T05:52:48;96403.63;;;6.44;47.09
69411;BME280;56604;48.652;9.194;2023-04-06T05:55:13;96408.94;;;6.86;47.19
69411;BME280;56604;48.652;9.194;2023-04-06T05:57:39;96405.63;;;7.09;46.41
69411;BME280;56604;48.652;9.194;2023-04-06T06:00:05;96400.03;;;7.47;44.61
69411;BME280;56604;48.652;9.194;2023-04-06T06:02:34;96397.03;;;7.97;43.95
69411;BME280;56604;48.652;9.194;2023-04-06T06:04:59;96404.63;;;8.46;42.30
69411;BME280;56604;48.652;9.194;2023-04-06T06:07:25;96410.38;;;9.00;42.09
69411;BME280;56604;48.652;9.194;2023-04-06T06:09:50;96415.94;;;9.04;41.61
69411;BME280;56604;48.652;9.194;2023-04-06T06:12:15;96415.38;;;9.47;40.91
69411;BME280;56604;48.652;9.194;2023-04-06T06:14:41;96421.75;;;9.34;40.57
69411;BME280;56604;48.652;9.194;2023-04-06T06:17:06;96417.91;;;9.25;40.24
69411;BME280;56604;48.652;9.194;2023-04-06T06:19:32;96413.97;;;9.73;39.43
69411;BME280;56604;48.652;9.194;2023-04-06T06:21:57;96405.53;;;10.05;39.87
69411;BME280;56604;48.652;9.194;2023-04-06T06:24:23;96407.56;;;10.20;38.17
69411;BME280;56604;48.652;9.194;2023-04-06T06:26:49;96405.75;;;10.59;38.32
69411;BME280;56604;48.652;9.194;2023-04-06T06:29:14;96408.13;;;10.83;37.94
69411;BME280;56604;48.652;9.194;2023-04-06T06:31:40;96408.84;;;11.00;37.37
69411;BME280;56604;48.652;9.194;2023-04-06T06:34:05;96419.78;;;10.92;37.16
69411;BME280;56604;48.652;9.194;2023-04-06T06:36:31;96413.00;;;11.82;35.83
69411;BME280;56604;48.652;9.194;2023-04-06T06:38:57;96413.06;;;11.87;36.46
69411;BME280;56604;48.652;9.194;2023-04-06T06:41:24;96418.44;;;12.03;34.40
69411;BME280;56604;48.652;9.194;2023-04-06T06:43:49;96414.97;;;11.97;35.30
69411;BME280;56604;48.652;9.194;2023-04-06T06:46:14;96424.44;;;11.34;36.38
69411;BME280;56604;48.652;9.194;2023-04-06T06:48:40;96432.00;;;11.57;35.81
69411;BME280;56604;48.652;9.194;2023-04-06T06:51:05;96417.94;;;12.53;34.66
69411;BME280;56604;48.652;9.194;2023-04-06T06:53:31;96427.59;;;11.95;35.48
69411;BME280;56604;48.652;9.194;2023-04-06T06:55:56;96417.66;;;12.02;37.33
69411;BME280;56604;48.652;9.194;2023-04-06T06:58:22;96427.72;;;13.31;34.40
69411;BME280;56604;48.652;9.194;2023-04-06T07:00:47;96431.19;;;12.69;34.41
69411;BME280;56604;48.652;9.194;2023-04-06T07:03:12;96434.38;;;12.71;34.64
69411;BME280;56604;48.652;9.194;2023-04-06T07:05:38;96426.69;;;12.69;34.54
69411;BME280;56604;48.652;9.194;2023-04-06T07:08:04;96434.09;;;13.45;34.11
69411;BME280;56604;48.652;9.194;2023-04-06T07:10:29;96432.38;;;12.35;34.55
69411;BME280;56604;48.652;9.194;2023-04-06T07:12:55;96431.88;;;13.17;34.99
69411;BME280;56604;48.652;9.194;2023-04-06T07:15:20;96443.41;;;12.32;34.10
69411;BME280;56604;48.652;9.194;2023-04-06T07:17:46;96434.38;;;13.49;33.83
69411;BME280;56604;48.652;9.194;2023-04-06T07:20:12;96433.06;;;13.72;32.95
69411;BME280;56604;48.652;9.194;2023-04-06T07:22:38;96428.31;;;13.89;32.29
69411;BME280;56604;48.652;9.194;2023-04-06T07:25:04;96436.50;;;13.98;32.52
69411;BME280;56604;48.652;9.194;2023-04-06T07:27:30;96436.75;;;13.81;32.48
69411;BME280;56604;48.652;9.194;2023-04-06T07:29:55;96433.00;;;14.38;31.80
69411;BME280;56604;48.652;9.194;2023-04-06T07:32:20;96432.75;;;15.15;32.08
69411;BME280;56604;48.652;9.194;2023-04-06T07:34:46;96451.44;;;12.10;35.78
69411;BME280;56604;48.652;9.194;2023-04-06T07:37:12;96444.72;;;11.38;36.77
69411;BME280;56604;48.652;9.194;2023-04-06T07:39:37;96441.59;;;12.96;33.42
69411;BME280;56604;48.652;9.194;2023-04-06T07:42:03;96443.44;;;12.90;34.19
69411;BME280;56604;48.652;9.194;2023-04-06T07:44:28;96436.75;;;14.02;32.83
69411;BME280;56604;48.652;9.194;2023-04-06T07:46:53;96432.88;;;14.84;31.90
69411;BME280;56604;48.652;9.194;2023-04-06T07:49:19;96435.94;;;15.12;30.97
69411;BME280;56604;48.652;9.194;2023-04-06T07:51:46;96433.78;;;14.49;31.21
69411;BME280;56604;48.652;9.194;2023-04-06T07:54:11;96429.81;;;14.42;31.43
69411;BME280;56604;48.652;9.194;2023-04-06T07:56:36;96427.69;;;14.54;32.25
69411;BME280;56604;48.652;9.194;2023-04-06T07:59:02;96430.34;;;14.38;31.69
69411;BME280;56604;48.652;9.194;2023-04-06T08:01:28;96426.78;;;15.39;31.22
69411;BME280;56604;48.652;9.194;2023-04-06T08:03:54;96439.38;;;14.32;30.59
69411;BME280;56604;48.652;9.194;2023-04-06T08:06:20;96424.28;;;15.13;31.51
69411;BME280;56604;48.652;9.194;2023-04-06T08:08:46;96436.22;;;14.15;32.72
69411;BME280;56604;48.652;9.194;2023-04-06T08:11:11;96448.50;;;12.49;34.28
69411;BME280;56604;48.652;9.194;2023-04-06T08:13:36;96443.69;;;12.94;35.31
69411;BME280;56604;48.652;9.194;2023-04-06T08:16:02;96445.19;;;14.14;32.89
69411;BME280;56604;48.652;9.194;2023-04-06T08:18:27;96446.81;;;13.94;33.13
69411;BME280;56604;48.652;9.194;2023-04-06T08:20:54;96434.94;;;15.47;32.15
69411;BME280;56604;48.652;9.194;2023-04-06T08:23:20;96439.25;;;14.83;32.73
69411;BME280;56604;48.652;9.194;2023-04-06T08:25:45;96429.28;;;15.99;30.05
69411;BME280;56604;48.652;9.194;2023-04-06T08:28:11;96447.72;;;13.17;33.01
69411;BME280;56604;48.652;9.194;2023-04-06T08:30:39;96447.69;;;12.06;35.08
69411;BME280;56604;48.652;9.194;2023-04-06T08:33:05;96445.22;;;13.73;33.29
69411;BME280;56604;48.652;9.194;2023-04-06T08:35:31;96434.47;;;14.85;32.46
69411;BME280;56604;48.652;9.194;2023-04-06T08:37:57;96443.75;;;13.04;33.67
69411;BME280;56604;48.652;9.194;2023-04-06T08:40:22;96445.56;;;12.98;32.97
69411;BME280;56604;48.652;9.194;2023-04-06T08:42:57;96445.75;;;13.70;32.17
69411;BME280;56604;48.652;9.194;2023-04-06T08:45:24;96439.41;;;13.97;31.61
69411;BME280;56604;48.652;9.194;2023-04-06T08:47:52;96442.03;;;14.12;30.62
69411;BME280;56604;48.652;9.194;2023-04-06T08:50:18;96427.66;;;14.74;31.87
69411;BME280;56604;48.652;9.194;2023-04-06T08:52:46;96430.22;;;15.39;30.34
69411;BME280;56604;48.652;9.194;2023-04-06T08:55:12;96421.69;;;16.45;29.16
69411;BME280;56604;48.652;9.194;2023-04-06T08:57:37;96425.88;;;16.99;27.79
69411;BME280;56604;48.652;9.194;2023-04-06T09:00:04;96427.38;;;15.70;31.52
69411;BME280;56604;48.652;9.194;2023-04-06T09:02:30;96428.06;;;14.97;32.60
69411;BME280;56604;48.652;9.194;2023-04-06T09:04:56;96423.28;;;14.99;31.64
69411;BME280;56604;48.652;9.194;2023-04-06T09:07:21;96422.41;;;14.54;32.03
69411;BME280;56604;48.652;9.194;2023-04-06T09:09:47;96437.25;;;13.37;34.64
69411;BME280;56604;48.652;9.194;2023-04-06T09:12:27;96439.38;;;13.45;35.79
69411;BME280;56604;48.652;9.194;2023-04-06T09:14:52;96431.25;;;12.79;36.02
69411;BME280;56604;48.652;9.194;2023-04-06T09:17:23;96430.13;;;13.94;34.28
69411;BME280;56604;48.652;9.194;2023-04-06T09:19:49;96429.56;;;12.57;36.99
69411;BME280;56604;48.652;9.194;2023-04-06T09:22:15;96427.63;;;12.95;34.78
69411;BME280;56604;48.652;9.194;2023-04-06T09:24:45;96429.56;;;12.10;36.65
69411;BME280;56604;48.652;9.194;2023-04-06T09:27:10;96431.06;;;12.38;37.44
69411;BME280;56604;48.652;9.194;2023-04-06T09:29:36;96427.91;;;12.41;35.56
69411;BME280;56604;48.652;9.194;2023-04-06T09:32:06;96428.22;;;12.50;36.82
69411;BME280;56604;48.652;9.194;2023-04-06T09:34:32;96434.78;;;12.47;34.40
69411;BME280;56604;48.652;9.194;2023-04-06T09:36:58;96439.78;;;12.01;35.20
69411;BME280;56604;48.652;9.194;2023-04-06T09:39:23;96433.53;;;12.12;33.78
69411;BME280;56604;48.652;9.194;2023-04-06T09:41:53;96424.25;;;12.47;33.34
69411;BME280;56604;48.652;9.194;2023-04-06T09:44:19;96427.16;;;12.08;32.97
69411;BME280;56604;48.652;9.194;2023-04-06T09:46:46;96421.34;;;12.01;33.98
69411;BME280;56604;48.652;9.194;2023-04-06T09:49:13;96417.78;;;11.85;33.16
69411;BME280;56604;48.652;9.194;2023-04-06T09:51:53;96420.09;;;12.14;34.17
69411;BME280;56604;48.652;9.194;2023-04-06T09:54:46;96420.50;;;12.38;30.46
69411;BME280;56604;48.652;9.194;2023-04-06T09:57:25;96426.28;;;11.92;33.66
69411;BME280;56604;48.652;9.194;2023-04-06T10:07:41;96409.94;;;12.33;31.24
69411;BME280;56604;48.652;9.194;2023-04-06T10:10:08;96419.59;;;12.75;32.70
69411;BME280;56604;48.652;9.194;2023-04-06T10:12:34;96413.22;;;12.55;32.26
69411;BME280;56604;48.652;9.194;2023-04-06T10:15:01;96411.41;;;12.61;30.21
69411;BME280;56604;48.652;9.194;2023-04-06T10:17:26;96410.97;;;12.32;31.61
69411;BME280;56604;48.652;9.194;2023-04-06T10:20:02;96409.25;;;11.73;32.36
69411;BME280;56604;48.652;9.194;2023-04-06T10:22:35;96400.09;;;12.71;34.24
69411;BME280;56604;48.652;9.194;2023-04-06T10:25:01;96409.28;;;12.63;32.39
69411;BME280;56604;48.652;9.194;2023-04-06T10:27:28;96412.81;;;11.89;32.33
69411;BME280;56604;48.652;9.194;2023-04-06T10:30:01;96406.78;;;12.36;33.68
69411;BME280;56604;48.652;9.194;2023-04-06T10:32:37;96403.25;;;12.68;33.89
69411;BME280;56604;48.652;9.194;2023-04-06T10:35:10;96401.44;;;12.26;32.52
69411;BME280;56604;48.652;9.194;2023-04-06T10:38:06;96393.06;;;12.34;32.10
69411;BME280;56604;48.652;9.194;2023-04-06T10:40:31;96395.75;;;12.49;33.17
69411;BME280;56604;48.652;9.194;2023-04-06T10:43:08;96397.78;;;12.27;33.50
69411;BME280;56604;48.652;9.194;2023-04-06T10:45:34;96400.50;;;11.67;31.70
69411;BME280;56604;48.652;9.194;2023-04-06T10:48:01;96385.13;;;12.29;31.47
69411;BME280;56604;48.652;9.194;2023-04-06T10:50:37;96394.22;;;12.06;32.37
69411;BME280;56604;48.652;9.194;2023-04-06T10:53:05;96395.00;;;12.01;33.02
69411;BME280;56604;48.652;9.194;2023-04-06T10:55:31;96383.47;;;12.18;31.70
69411;BME280;56604;48.652;9.194;2023-04-06T10:57:56;96387.06;;;11.96;30.05
69411;BME280;56604;48.652;9.194;2023-04-06T11:00:23;96396.91;;;11.79;30.27
69411;BME280;56604;48.652;9.194;2023-04-06T11:02:48;96386.13;;;12.18;29.06
69411;BME280;56604;48.652;9.194;2023-04-06T11:05:14;96386.66;;;11.82;28.99
69411;BME280;56604;48.652;9.194;2023-04-06T11:07:40;96380.75;;;12.02;29.76
69411;BME280;56604;48.652;9.194;2023-04-06T11:10:07;96380.91;;;12.28;30.55
69411;BME280;56604;48.652;9.194;2023-04-06T11:12:33;96383.53;;;12.28;31.23
69411;BME280;56604;48.652;9.194;2023-04-06T11:15:01;96376.81;;;12.57;30.50
69411;BME280;56604;48.652;9.194;2023-04-06T11:17:36;96382.91;;;12.10;28.49
69411;BME280;56604;48.652;9.194;2023-04-06T11:20:03;96379.13;;;12.38;29.62
69411;BME280;56604;48.652;9.194;2023-04-06T11:22:30;96377.53;;;11.90;28.28
69411;BME280;56604;48.652;9.194;2023-04-06T11:25:05;96378.22;;;11.80;29.26
69411;BME280;56604;48.652;9.194;2023-04-06T11:27:31;96369.56;;;11.85;29.98
69411;BME280;56604;48.652;9.194;2023-04-06T11:29:58;96376.22;;;11.28;29.12
69411;BME280;56604;48.652;9.194;2023-04-06T11:32:24;96369.88;;;10.97;29.60
69411;BME280;56604;48.652;9.194;2023-04-06T11:34:49;96361.66;;;11.20;30.02
69411;BME280;56604;48.652;9.194;2023-04-06T11:37:15;96354.44;;;11.38;29.90
69411;BME280;56604;48.652;9.194;2023-04-06T11:39:47;96352.41;;;11.82;34.75
69411;BME280;56604;48.652;9.194;2023-04-06T11:42:21;96347.84;;;11.67;30.79
69411;BME280;56604;48.652;9.194;2023-04-06T11:44:50;96357.31;;;11.68;31.08
69411;BME280;56604;48.652;9.194;2023-04-06T11:47:16;96352.66;;;11.43;29.59
69411;BME280;56604;48.652;9.194;2023-04-06T11:49:43;96347.84;;;11.67;29.98
69411;BME280;56604;48.652;9.194;2023-04-06T11:52:26;96343.44;;;11.78;31.01
69411;BME280;56604;48.652;9.194;2023-04-06T11:54:53;96345.50;;;12.13;31.88
69411;BME280;56604;48.652;9.194;2023-04-06T11:57:21;96341.75;;;11.99;29.39
69411;BME280;56604;48.652;9.194;2023-04-06T11:59:46;96338.53;;;11.92;29.40
69411;BME280;56604;48.652;9.194;2023-04-06T12:02:12;96332.13;;;11.83;30.12
69411;BME280;56604;48.652;9.194;2023-04-06T12:04:38;96339.25;;;12.25;31.72
69411;BME280;56604;48.652;9.194;2023-04-06T12:07:04;96337.13;;;12.22;30.12
69411;BME280;56604;48.652;9.194;2023-04-06T12:09:30;96334.53;;;12.27;29.98
69411;BME280;56604;48.652;9.194;2023-04-06T12:11:56;96331.47;;;12.55;32.13
69411;BME280;56604;48.652;9.194;2023-04-06T12:14:21;96333.41;;;12.12;29.89
69411;BME280;56604;48.652;9.194;2023-04-06T12:16:47;96333.88;;;12.04;32.56
69411;BME280;56604;48.652;9.194;2023-04-06T12:19:12;96333.56;;;12.01;30.17
69411;BME280;56604;48.652;9.194;2023-04-06T12:21:38;96334.00;;;12.30;31.67
69411;BME280;56604;48.652;9.194;2023-04-06T12:24:04;96325.97;;;12.72;32.13
69411;BME280;56604;48.652;9.194;2023-04-06T12:26:30;96324.94;;;12.83;30.58
69411;BME280;56604;48.652;9.194;2023-04-06T12:28:56;96313.16;;;13.32;30.03
69411;BME280;56604;48.652;9.194;2023-04-06T12:31:24;96315.22;;;13.10;29.40
69411;BME280;56604;48.652;9.194;2023-04-06T12:33:51;96309.66;;;13.16;28.94
69411;BME280;56604;48.652;9.194;2023-04-06T12:36:19;96303.63;;;13.46;29.26
69411;BME280;56604;48.652;9.194;2023-04-06T12:38:46;96313.66;;;13.44;28.59
69411;BME280;56604;48.652;9.194;2023-04-06T12:41:12;96306.25;;;13.67;28.47
69411;BME280;56604;48.652;9.194;2023-04-06T12:43:39;96299.66;;;13.54;28.27
69411;BME280;56604;48.652;9.194;2023-04-06T12:46:05;96305.72;;;13.75;27.92
69411;BME280;56604;48.652;9.194;2023-04-06T12:48:31;96301.47;;;13.79;27.10
69411;BME280;56604;48.652;9.194;2023-04-06T12:51:00;96296.16;;;13.94;27.87
69411;BME280;56604;48.652;9.194;2023-04-06T12:53:26;96294.03;;;13.97;27.37
69411;BME280;56604;48.652;9.194;2023-04-06T12:55:54;96301.50;;;13.64;27.26
69411;BME280;56604;48.652;9.194;2023-04-06T12:58:20;96299.13;;;13.57;28.74
69411;BME280;56604;48.652;9.194;2023-04-06T13:00:47;96302.06;;;13.35;26.82
69411;BME280;56604;48.652;9.194;2023-04-06T13:03:12;96310.94;;;12.73;27.19
69411;BME280;56604;48.652;9.194;2023-04-06T13:05:47;96300.38;;;12.83;26.90
69411;BME280;56604;48.652;9.194;2023-04-06T13:08:13;96295.09;;;12.83;26.78